Time;durP1;ratioP1;P1;durP2;ratioP2;P2;SDS_P1;SDS_P2;PMS_P1;PMS_P2;Temp;Humidity;BMP_temperature;BMP_pressure;BME280_temperature;BME280_humidity;BME280_pressure;Samples;Min_cycle;Max_cycle;Signal;HPM_P1;HPM_P2
2023/09/26 00:00:50;;;;;;;;;;;;;;;13.50;76.92;101093.28;4993169;28;1944;-78
2023/09/26 00:03:42;;;;;;;;;;;;;;;13.50;76.92;101087.03;5000050;28;2393;-78
2023/09/26 00:06:34;;;;;;;;;;;;;;;13.50;77.09;101087.03;5016713;28;1188;-77
2023/09/26 00:09:26;;;;;;;;;;;;;;;13.50;76.78;101081.59;4995077;28;4059;-77
2023/09/26 00:12:18;;;;;;;;;;;;;;;13.49;76.84;101088.09;4993130;28;2183;-77
2023/09/26 00:15:11;;;;;;;;;;;;;;;13.49;77.05;101086.19;5000266;28;2207;-77
2023/09/26 00:18:03;;;;;;;;;;;;;;;13.49;76.98;101086.19;5001821;28;2157;-77
2023/09/26 00:20:54;;;;;;;;;;;;;;;13.49;76.82;101083.50;5009265;28;1311;-77
2023/09/26 00:23:46;;;;;;;;;;;;;;;13.48;76.83;101084.56;5002518;28;2067;-77
2023/09/26 00:26:38;;;;;;;;;;;;;;;13.49;76.80;101096.19;4999004;28;2055;-78
2023/09/26 00:29:31;;;;;;;;;;;;;;;13.49;76.83;101093.50;5005173;28;2325;-77
2023/09/26 00:32:23;;;;;;;;;;;;;;;13.48;76.91;101095.38;4998040;28;2135;-78
2023/09/26 00:35:17;;;;;;;;;;;;;;;13.49;76.90;101099.72;5006156;28;1902;-78
2023/09/26 00:38:09;;;;;;;;;;;;;;;13.49;76.89;101109.72;5007640;28;2212;-78
2023/09/26 00:41:01;;;;;;;;;;;;;;;13.49;76.98;101115.97;5014995;28;955;-76
2023/09/26 00:43:52;;;;;;;;;;;;;;;13.48;77.03;101122.44;4992648;28;2120;-76
2023/09/26 00:46:45;;;;;;;;;;;;;;;13.49;76.98;101134.91;4999179;28;2550;-76
2023/09/26 00:49:37;;;;;;;;;;;;;;;13.49;76.91;101144.91;5034505;22;3806;-77
2023/09/26 00:52:29;;;;;;;;;;;;;;;13.48;76.83;101146.78;5031513;28;1987;-76
2023/09/26 00:55:21;;;;;;;;;;;;;;;13.48;76.97;101144.09;5025156;28;2014;-77
2023/09/26 00:58:14;;;;;;;;;;;;;;;13.47;76.96;101136.19;5031760;28;2089;-77
2023/09/26 01:01:05;;;;;;;;;;;;;;;13.47;76.83;101144.28;5023029;28;2429;-76
2023/09/26 01:03:57;;;;;;;;;;;;;;;13.47;76.80;101150.56;5024434;28;2082;-76
2023/09/26 01:06:48;;;;;;;;;;;;;;;13.46;76.79;101153.47;5032680;28;2141;-78
2023/09/26 01:09:40;;;;;;;;;;;;;;;13.47;76.75;101155.13;5030044;28;2148;-77
2023/09/26 01:12:32;;;;;;;;;;;;;;;13.46;76.79;101151.59;5024132;28;2101;-76
2023/09/26 01:15:27;;;;;;;;;;;;;;;13.48;76.98;101160.31;5023776;28;2228;-78
2023/09/26 01:18:23;;;;;;;;;;;;;;;13.46;76.77;101162.41;5032247;28;2469;-78
2023/09/26 01:21:14;;;;;;;;;;;;;;;13.46;77.05;101158.88;5023390;28;2094;-78
2023/09/26 01:24:06;;;;;;;;;;;;;;;13.46;76.90;101164.28;5032563;28;2088;-77
2023/09/26 01:26:58;;;;;;;;;;;;;;;13.45;77.04;101158.06;5030312;28;2136;-76
2023/09/26 01:29:51;;;;;;;;;;;;;;;13.45;76.96;101162.66;5029508;28;1705;-76
2023/09/26 01:32:42;;;;;;;;;;;;;;;13.45;76.85;101159.94;5026205;28;2248;-76
2023/09/26 01:35:33;;;;;;;;;;;;;;;13.45;76.70;101154.53;5023066;28;2148;-78
2023/09/26 01:38:25;;;;;;;;;;;;;;;13.45;76.70;101154.53;5020520;28;2267;-76
2023/09/26 01:41:17;;;;;;;;;;;;;;;13.44;76.87;101153.69;5030625;28;2146;-79
2023/09/26 01:44:09;;;;;;;;;;;;;;;13.44;76.81;101155.56;5026088;28;3490;-78
2023/09/26 01:47:01;;;;;;;;;;;;;;;13.45;76.85;101149.94;5027712;28;2450;-76
2023/09/26 01:49:53;;;;;;;;;;;;;;;13.45;76.70;101151.84;5017768;28;2146;-76
2023/09/26 01:52:45;;;;;;;;;;;;;;;13.44;76.85;101152.84;5021979;28;2212;-77
2023/09/26 01:55:37;;;;;;;;;;;;;;;13.43;76.59;101151.22;5026352;28;3509;-76
2023/09/26 01:58:29;;;;;;;;;;;;;;;13.43;76.75;101149.34;5029321;28;2466;-76
2023/09/26 02:01:21;;;;;;;;;;;;;;;13.43;76.65;101152.03;5022149;28;2203;-76
2023/09/26 02:04:13;;;;;;;;;;;;;;;13.42;76.72;101152.28;5021231;28;1648;-78
2023/09/26 02:07:05;;;;;;;;;;;;;;;13.43;76.86;101159.34;5018491;28;1886;-77
2023/09/26 02:09:57;;;;;;;;;;;;;;;13.43;76.74;101151.22;5019326;28;3596;-76
2023/09/26 02:12:49;;;;;;;;;;;;;;;13.43;76.86;101162.88;5021145;28;2318;-77
2023/09/26 02:15:41;;;;;;;;;;;;;;;13.42;76.86;101168.50;5030776;28;2095;-78
2023/09/26 02:18:33;;;;;;;;;;;;;;;13.42;76.75;101163.09;5028006;28;2111;-77
2023/09/26 02:21:25;;;;;;;;;;;;;;;13.41;76.74;101173.06;5025504;28;2270;-76
2023/09/26 02:24:16;;;;;;;;;;;;;;;13.40;76.77;101171.44;5022526;28;1988;-78
2023/09/26 02:27:09;;;;;;;;;;;;;;;13.40;76.75;101169.53;5023042;28;2187;-76
2023/09/26 02:30:01;;;;;;;;;;;;;;;13.41;76.62;101170.38;5026366;28;2245;-77
2023/09/26 02:32:52;;;;;;;;;;;;;;;13.40;76.84;101157.91;5020143;28;2330;-77
2023/09/26 02:35:44;;;;;;;;;;;;;;;13.41;76.87;101167.66;5030762;28;2132;-77
2023/09/26 02:38:36;;;;;;;;;;;;;;;13.39;76.74;101167.91;5020764;28;1987;-78
2023/09/26 02:41:28;;;;;;;;;;;;;;;13.40;76.81;101163.31;5024107;28;2966;-78
2023/09/26 02:44:20;;;;;;;;;;;;;;;13.38;76.84;101171.66;5028942;28;2143;-77
2023/09/26 02:47:12;;;;;;;;;;;;;;;13.39;76.73;101169.78;5023147;28;2350;-78
2023/09/26 02:50:04;;;;;;;;;;;;;;;13.39;76.85;101173.31;5027915;28;2391;-78
2023/09/26 02:52:57;;;;;;;;;;;;;;;13.39;76.83;101173.31;5034044;28;2155;-77
2023/09/26 02:55:49;;;;;;;;;;;;;;;13.38;76.81;101173.53;5023809;28;2034;-77
2023/09/26 02:58:41;;;;;;;;;;;;;;;13.39;76.79;101173.31;5021182;28;3206;-78
2023/09/26 03:01:33;;;;;;;;;;;;;;;13.38;76.83;101179.78;5025416;28;2124;-77
2023/09/26 03:04:25;;;;;;;;;;;;;;;13.38;76.84;101182.50;5020927;28;2228;-78
2023/09/26 03:07:16;;;;;;;;;;;;;;;13.37;76.83;101183.53;5031007;28;2041;-78
2023/09/26 03:10:08;;;;;;;;;;;;;;;13.38;76.68;101187.91;5019321;28;2153;-78
2023/09/26 03:13:00;;;;;;;;;;;;;;;13.37;76.87;101178.09;5018117;28;2202;-77
2023/09/26 03:15:52;;;;;;;;;;;;;;;13.37;76.67;101171.88;5019507;28;2177;-77
2023/09/26 03:18:44;;;;;;;;;;;;;;;13.37;76.67;101172.69;5021122;28;2177;-77
2023/09/26 03:21:36;;;;;;;;;;;;;;;13.36;76.62;101171.06;5027699;28;2232;-77
2023/09/26 03:24:28;;;;;;;;;;;;;;;13.36;76.68;101171.06;5023149;28;2131;-78
2023/09/26 03:27:20;;;;;;;;;;;;;;;13.36;76.82;101176.47;5032300;28;1605;-78
2023/09/26 03:30:12;;;;;;;;;;;;;;;13.36;76.72;101178.34;5027472;28;2469;-78
2023/09/26 03:33:04;;;;;;;;;;;;;;;13.36;76.66;101184.59;5021667;28;2302;-78
2023/09/26 03:35:56;;;;;;;;;;;;;;;13.35;76.68;101190.19;5018170;28;3577;-77
2023/09/26 03:38:48;;;;;;;;;;;;;;;13.36;76.90;101200.00;5021455;28;1936;-77
2023/09/26 03:41:40;;;;;;;;;;;;;;;13.36;76.76;101191.88;5021688;28;2361;-77
2023/09/26 03:44:32;;;;;;;;;;;;;;;13.34;76.72;101196.66;5019838;28;2092;-79
2023/09/26 03:47:24;;;;;;;;;;;;;;;13.34;76.61;101188.56;5026638;28;1971;-78
2023/09/26 03:50:16;;;;;;;;;;;;;;;13.33;76.88;101186.91;5024049;28;2436;-76
2023/09/26 03:53:09;;;;;;;;;;;;;;;13.33;76.69;101192.31;5027134;28;2102;-77
2023/09/26 03:56:00;;;;;;;;;;;;;;;13.33;76.65;101178.78;5027963;28;1942;-78
2023/09/26 03:58:52;;;;;;;;;;;;;;;13.33;76.69;101187.72;5020155;28;3376;-77
2023/09/26 04:01:47;;;;;;;;;;;;;;;13.35;76.60;101185.63;5024434;28;2274;-77
2023/09/26 04:04:38;;;;;;;;;;;;;;;13.31;76.84;101170.88;5024530;28;2050;-77
2023/09/26 04:07:29;;;;;;;;;;;;;;;13.33;76.65;101173.38;5028172;28;2086;-77
2023/09/26 04:10:21;;;;;;;;;;;;;;;13.32;76.66;101177.13;5017101;28;2139;-76
2023/09/26 04:13:13;;;;;;;;;;;;;;;13.31;76.84;101173.59;5022355;28;2109;-76
2023/09/26 04:16:05;;;;;;;;;;;;;;;13.31;76.68;101183.59;5028722;28;2001;-76
2023/09/26 04:18:57;;;;;;;;;;;;;;;13.31;76.51;101189.81;5022659;28;2177;-76
2023/09/26 04:21:49;;;;;;;;;;;;;;;13.30;76.90;101192.78;5026687;28;2126;-77
2023/09/26 04:24:41;;;;;;;;;;;;;;;13.30;76.84;101185.47;5028653;28;1758;-76
2023/09/26 04:27:32;;;;;;;;;;;;;;;13.30;76.56;101188.19;5017444;28;3421;-78
2023/09/26 04:30:24;;;;;;;;;;;;;;;13.30;76.66;101187.34;5020793;28;2183;-77
2023/09/26 04:33:16;;;;;;;;;;;;;;;13.29;76.81;101197.31;5028122;28;1920;-75
2023/09/26 04:39:01;;;;;;;;;;;;;;;13.29;76.61;101201.91;4967459;28;2129;-77
2023/09/26 04:41:54;;;;;;;;;;;;;;;13.29;76.61;101208.16;4959450;28;2295;-76
2023/09/26 04:44:45;;;;;;;;;;;;;;;13.29;76.84;101207.31;4965472;28;2009;-78
2023/09/26 04:47:37;;;;;;;;;;;;;;;13.29;76.62;101207.31;4962547;28;2310;-78
2023/09/26 04:50:29;;;;;;;;;;;;;;;13.27;76.59;101212.97;4972517;28;2395;-79
2023/09/26 04:53:22;;;;;;;;;;;;;;;13.27;76.62;101210.25;4968714;28;2180;-76
2023/09/26 04:56:14;;;;;;;;;;;;;;;13.28;76.53;101216.50;4963610;28;2242;-76
2023/09/26 04:59:06;;;;;;;;;;;;;;;13.26;76.67;101214.00;4971083;28;2193;-76
2023/09/26 05:01:58;;;;;;;;;;;;;;;13.27;76.77;101207.56;4973945;28;1880;-75
2023/09/26 05:04:50;;;;;;;;;;;;;;;13.27;76.52;101209.44;4969647;28;2238;-78
2023/09/26 05:07:42;;;;;;;;;;;;;;;13.27;76.78;101212.16;4965606;28;5388;-75
2023/09/26 05:10:33;;;;;;;;;;;;;;;13.26;76.84;101214.00;4972057;28;2306;-77
2023/09/26 05:13:25;;;;;;;;;;;;;;;13.27;76.51;101212.16;4978383;28;2988;-77
2023/09/26 05:16:18;;;;;;;;;;;;;;;13.26;76.52;101216.69;4970513;28;2501;-77
2023/09/26 05:19:09;;;;;;;;;;;;;;;13.26;76.69;101221.28;4974222;28;2258;-77
2023/09/26 05:22:01;;;;;;;;;;;;;;;13.25;76.46;101211.50;4969939;28;2928;-77
2023/09/26 05:24:53;;;;;;;;;;;;;;;13.25;76.53;101222.31;4972033;28;4357;-79
2023/09/26 05:27:45;;;;;;;;;;;;;;;13.25;76.52;101222.31;4972270;28;2264;-77
2023/09/26 05:30:37;;;;;;;;;;;;;;;13.24;76.65;101221.50;4969123;28;2215;-78
2023/09/26 05:33:28;;;;;;;;;;;;;;;13.24;76.72;101217.97;4972033;28;5272;-77
2023/09/26 05:36:19;;;;;;;;;;;;;;;13.24;76.56;101217.97;4969001;28;2430;-75
2023/09/26 05:39:11;;;;;;;;;;;;;;;13.23;76.58;101224.41;4967788;28;5037;-76
2023/09/26 05:42:03;;;;;;;;;;;;;;;13.23;76.43;101233.34;4974169;28;2325;-77
2023/09/26 05:44:56;;;;;;;;;;;;;;;13.24;76.65;101236.91;4967434;28;2257;-77
2023/09/26 05:47:47;;;;;;;;;;;;;;;13.22;76.60;101231.69;4962373;28;980;-76
2023/09/26 05:50:38;;;;;;;;;;;;;;;13.23;76.62;101235.22;4970956;28;4896;-76
2023/09/26 05:53:31;;;;;;;;;;;;;;;13.23;76.44;101240.63;4967196;28;2250;-76
2023/09/26 05:56:22;;;;;;;;;;;;;;;13.21;76.44;101238.16;4968123;28;2216;-78
2023/09/26 05:59:14;;;;;;;;;;;;;;;13.21;76.41;101246.28;4968985;28;2187;-76
2023/09/26 06:02:06;;;;;;;;;;;;;;;13.21;76.43;101256.25;4969156;28;2125;-77
2023/09/26 06:04:58;;;;;;;;;;;;;;;13.21;76.54;101257.09;4971014;28;2128;-77
2023/09/26 06:07:51;;;;;;;;;;;;;;;13.21;76.45;101256.25;4968201;28;2283;-76
2023/09/26 06:10:44;;;;;;;;;;;;;;;13.20;76.50;101260.84;4970178;28;2278;-79
2023/09/26 06:13:35;;;;;;;;;;;;;;;13.20;76.37;101266.25;4962440;28;2527;-78
2023/09/26 06:16:26;;;;;;;;;;;;;;;13.20;76.56;101274.34;4967415;28;2381;-79
2023/09/26 06:19:18;;;;;;;;;;;;;;;13.19;76.52;101275.41;4968759;28;2153;-77
2023/09/26 06:22:10;;;;;;;;;;;;;;;13.19;76.26;101280.81;4964208;28;2560;-79
2023/09/26 06:25:04;;;;;;;;;;;;;;;13.19;76.44;101278.94;4966804;28;2357;-77
2023/09/26 06:27:56;;;;;;;;;;;;;;;13.19;76.59;101286.22;4966614;28;2287;-77
2023/09/26 06:30:47;;;;;;;;;;;;;;;13.18;76.45;101280.00;4960120;28;2954;-76
2023/09/26 06:33:40;;;;;;;;;;;;;;;13.18;76.29;101290.81;4962006;28;2290;-75
2023/09/26 06:36:32;;;;;;;;;;;;;;;13.18;76.37;101290.00;4964035;28;2489;-76
2023/09/26 06:39:24;;;;;;;;;;;;;;;13.17;76.26;101291.03;4965522;28;2287;-76
2023/09/26 06:42:15;;;;;;;;;;;;;;;13.17;76.41;101291.84;4966037;28;2382;-77
2023/09/26 06:45:07;;;;;;;;;;;;;;;13.17;76.26;101293.72;4967026;28;2328;-76
2023/09/26 06:47:58;;;;;;;;;;;;;;;13.17;76.24;101302.66;4967031;28;2564;-77
2023/09/26 06:50:50;;;;;;;;;;;;;;;13.17;76.29;101301.84;4965761;28;2452;-76
2023/09/26 06:53:41;;;;;;;;;;;;;;;13.17;76.29;101301.84;4956483;28;5711;-77
2023/09/26 06:56:32;;;;;;;;;;;;;;;13.17;76.27;101299.13;4969863;28;2153;-78
2023/09/26 06:59:24;;;;;;;;;;;;;;;13.17;76.44;101296.44;4963790;28;2101;-78
2023/09/26 07:02:17;;;;;;;;;;;;;;;13.16;76.28;101303.72;4971983;28;2108;-78
2023/09/26 07:05:08;;;;;;;;;;;;;;;13.16;76.25;101308.31;4965257;28;2080;-77
2023/09/26 07:08:00;;;;;;;;;;;;;;;13.16;76.34;101303.72;4954498;28;6213;-76
2023/09/26 07:10:53;;;;;;;;;;;;;;;13.16;76.11;101303.72;4965440;28;3563;-77
2023/09/26 07:13:44;;;;;;;;;;;;;;;13.16;76.27;101314.53;4965412;28;2350;-77
2023/09/26 07:16:36;;;;;;;;;;;;;;;13.15;76.20;101309.38;4961579;28;5613;-76
2023/09/26 07:19:28;;;;;;;;;;;;;;;13.15;76.31;101321.00;4972619;28;2278;-77
2023/09/26 07:22:20;;;;;;;;;;;;;;;13.14;76.36;101327.44;4965470;28;2121;-78
2023/09/26 07:25:12;;;;;;;;;;;;;;;13.16;76.39;101327.25;4965294;28;2165;-76
2023/09/26 07:28:05;;;;;;;;;;;;;;;13.15;76.14;101331.84;4970635;28;2218;-75
2023/09/26 07:30:57;;;;;;;;;;;;;;;13.15;76.15;101326.41;4963412;28;2097;-76
2023/09/26 07:33:49;;;;;;;;;;;;;;;13.15;76.19;101320.19;4964954;28;1995;-76
2023/09/26 07:36:42;;;;;;;;;;;;;;;13.14;76.35;101319.34;4970458;28;2121;-76
2023/09/26 07:39:33;;;;;;;;;;;;;;;13.14;76.09;101324.75;4963406;28;1996;-77
2023/09/26 07:42:26;;;;;;;;;;;;;;;13.15;76.22;101328.31;4964985;28;2133;-78
2023/09/26 07:45:18;;;;;;;;;;;;;;;13.14;76.22;101330.16;4956660;28;5403;-77
2023/09/26 07:48:10;;;;;;;;;;;;;;;13.14;76.17;101338.25;4966665;28;2295;-77
2023/09/26 07:51:01;;;;;;;;;;;;;;;13.14;76.27;101332.84;4970046;28;2148;-76
2023/09/26 07:53:54;;;;;;;;;;;;;;;13.14;76.08;101342.84;4971253;28;2253;-76
2023/09/26 07:56:45;;;;;;;;;;;;;;;13.15;76.24;101347.25;4968755;28;2133;-76
2023/09/26 07:59:39;;;;;;;;;;;;;;;13.14;76.26;101351.78;4958976;28;2226;-75
2023/09/26 08:02:31;;;;;;;;;;;;;;;13.14;76.19;101354.50;4967697;28;4238;-77
2023/09/26 08:05:22;;;;;;;;;;;;;;;13.14;76.14;101359.09;4964455;28;3218;-77
2023/09/26 08:08:15;;;;;;;;;;;;;;;13.15;76.21;101358.88;4960432;28;6030;-76
2023/09/26 08:11:07;;;;;;;;;;;;;;;13.15;76.19;101358.06;4965682;28;4575;-75
2023/09/26 08:13:58;;;;;;;;;;;;;;;13.13;76.14;101349.31;4967802;28;3440;-76
2023/09/26 08:16:51;;;;;;;;;;;;;;;13.13;76.29;101350.16;4965152;28;2176;-76
2023/09/26 08:19:42;;;;;;;;;;;;;;;13.15;76.19;101368.88;4962939;28;5476;-77
2023/09/26 08:22:34;;;;;;;;;;;;;;;13.14;76.36;101370.72;4962469;28;2200;-76
2023/09/26 08:25:25;;;;;;;;;;;;;;;13.14;76.14;101368.00;4971315;28;2077;-75
2023/09/26 08:28:17;;;;;;;;;;;;;;;13.14;76.31;101369.91;4972900;28;2175;-75
2023/09/26 08:31:10;;;;;;;;;;;;;;;13.14;76.44;101372.59;4962762;28;6444;-79
2023/09/26 08:34:01;;;;;;;;;;;;;;;13.14;76.22;101376.13;4966842;28;2235;-75
2023/09/26 08:36:53;;;;;;;;;;;;;;;13.14;76.31;101373.44;4969629;28;4323;-75
2023/09/26 08:39:48;;;;;;;;;;;;;;;13.13;76.18;101376.38;4968082;28;2140;-75
2023/09/26 08:42:39;;;;;;;;;;;;;;;13.14;76.22;101372.59;4972950;28;2152;-76
2023/09/26 08:45:39;;;;;;;;;;;;;;;13.14;76.12;101365.31;4966167;28;5804;-76
2023/09/26 08:48:32;;;;;;;;;;;;;;;13.14;76.20;101375.31;4969300;28;4662;-75
2023/09/26 08:51:24;;;;;;;;;;;;;;;13.15;76.31;101385.09;4972664;28;2402;-77
2023/09/26 08:54:15;;;;;;;;;;;;;;;13.14;76.21;101378.00;4966318;28;2289;-76
2023/09/26 08:57:07;;;;;;;;;;;;;;;13.14;76.32;101381.53;4962718;28;3449;-75
2023/09/26 09:00:00;;;;;;;;;;;;;;;13.14;76.25;101378.84;4966230;28;3149;-78
2023/09/26 09:02:51;;;;;;;;;;;;;;;13.15;76.39;101390.50;4973422;28;2475;-76
2023/09/26 09:05:44;;;;;;;;;;;;;;;13.15;76.26;101382.41;4969664;28;3356;-78
2023/09/26 09:08:35;;;;;;;;;;;;;;;13.15;76.32;101385.09;4964096;28;936;-76
2023/09/26 09:11:27;;;;;;;;;;;;;;;13.15;76.33;101380.50;4965699;28;2192;-75
2023/09/26 09:14:19;;;;;;;;;;;;;;;13.15;76.36;101388.63;4971906;28;2583;-78
2023/09/26 09:17:11;;;;;;;;;;;;;;;13.15;76.31;101385.91;4972093;28;2371;-77
2023/09/26 09:20:02;;;;;;;;;;;;;;;13.16;76.26;101392.16;4973592;28;2310;-77
2023/09/26 09:22:54;;;;;;;;;;;;;;;13.16;76.27;101394.84;4967978;28;2380;-75
2023/09/26 09:25:51;;;;;;;;;;;;;;;13.16;76.43;101390.28;4967425;28;3036;-76
2023/09/26 09:28:42;;;;;;;;;;;;;;;13.16;76.40;101392.97;4970786;28;1551;-75
2023/09/26 09:31:34;;;;;;;;;;;;;;;13.15;76.31;101391.34;4971846;28;2415;-76
2023/09/26 09:34:27;;;;;;;;;;;;;;;13.17;76.41;101400.03;4973156;28;2581;-76
2023/09/26 09:37:18;;;;;;;;;;;;;;;13.17;76.53;101393.81;4966594;28;1978;-78
2023/09/26 09:40:11;;;;;;;;;;;;;;;13.17;76.35;101400.03;4967539;28;2274;-77
2023/09/26 09:43:02;;;;;;;;;;;;;;;13.18;76.51;101390.06;4967548;28;2480;-75
2023/09/26 09:45:54;;;;;;;;;;;;;;;13.19;76.47;101394.44;4968007;28;2420;-77
2023/09/26 09:48:46;;;;;;;;;;;;;;;13.19;76.33;101394.44;4961550;28;2678;-76
2023/09/26 09:51:41;;;;;;;;;;;;;;;13.19;76.47;101391.72;4972223;28;2404;-76
2023/09/26 09:54:33;;;;;;;;;;;;;;;13.19;76.37;101389.03;4968270;28;2561;-78
2023/09/26 09:57:25;;;;;;;;;;;;;;;13.19;76.45;101392.53;4958971;28;4996;-78
2023/09/26 10:00:19;;;;;;;;;;;;;;;13.19;76.75;101389.84;4966666;28;2097;-77
2023/09/26 10:03:11;;;;;;;;;;;;;;;13.19;76.67;101387.13;4972782;28;2325;-78
2023/09/26 10:06:02;;;;;;;;;;;;;;;13.21;76.82;101392.34;4973038;28;1019;-78
2023/09/26 10:08:54;;;;;;;;;;;;;;;13.21;76.71;101395.06;4972820;28;3404;-77
2023/09/26 10:11:46;;;;;;;;;;;;;;;13.21;76.71;101386.94;4969013;28;2377;-78
2023/09/26 10:14:37;;;;;;;;;;;;;;;13.22;76.78;101395.88;4974261;28;2475;-77
2023/09/26 10:17:29;;;;;;;;;;;;;;;13.22;76.65;101390.47;4963530;28;2669;-76
2023/09/26 10:20:21;;;;;;;;;;;;;;;13.24;76.92;101393.78;4974306;28;2199;-76
2023/09/26 10:23:18;;;;;;;;;;;;;;;13.23;76.85;101387.53;4966159;28;2083;-77
2023/09/26 10:26:09;;;;;;;;;;;;;;;13.23;76.78;101392.09;4968289;28;3106;-78
2023/09/26 10:29:01;;;;;;;;;;;;;;;13.25;76.82;101400.84;4973070;28;1622;-76
2023/09/26 10:31:55;;;;;;;;;;;;;;;13.24;77.00;101388.38;4963637;28;2048;-77
2023/09/26 10:34:47;;;;;;;;;;;;;;;13.25;76.84;101399.00;4971761;28;1987;-78
2023/09/26 10:37:39;;;;;;;;;;;;;;;13.25;76.67;101399.00;4971982;28;2371;-77
2023/09/26 10:40:31;;;;;;;;;;;;;;;13.25;77.13;101396.28;4968896;28;1071;-77
2023/09/26 10:43:23;;;;;;;;;;;;;;;13.26;76.74;101400.66;4965203;28;1320;-77
2023/09/26 10:46:15;;;;;;;;;;;;;;;13.27;76.76;101396.09;4966709;28;2226;-78
2023/09/26 10:49:06;;;;;;;;;;;;;;;13.27;76.72;101405.03;4970761;28;2116;-77
2023/09/26 10:51:59;;;;;;;;;;;;;;;13.27;76.95;101399.63;4966979;28;2312;-76
2023/09/26 10:54:51;;;;;;;;;;;;;;;13.28;76.85;101395.84;4964956;28;2358;-78
2023/09/26 10:57:43;;;;;;;;;;;;;;;13.29;76.87;101399.38;4964353;28;2069;-77
2023/09/26 11:00:35;;;;;;;;;;;;;;;13.30;76.66;101398.38;4969931;28;2180;-76
2023/09/26 11:03:26;;;;;;;;;;;;;;;13.29;76.90;101388.56;4971396;28;1107;-77
2023/09/26 11:06:20;;;;;;;;;;;;;;;13.29;76.64;101383.97;4971461;28;2615;-76
2023/09/26 11:09:11;;;;;;;;;;;;;;;13.31;76.80;101391.91;4966758;28;1605;-76
2023/09/26 11:12:02;;;;;;;;;;;;;;;13.31;76.74;101387.31;4963991;28;1203;-76
2023/09/26 11:14:54;;;;;;;;;;;;;;;13.31;76.87;101389.19;4972711;28;2222;-77
2023/09/26 11:17:45;;;;;;;;;;;;;;;13.32;76.75;101390.84;4968290;28;2054;-78
2023/09/26 11:20:38;;;;;;;;;;;;;;;13.32;76.82;101393.53;4972320;28;1939;-78
2023/09/26 11:23:30;;;;;;;;;;;;;;;13.33;76.84;101384.41;4965191;28;2148;-78
2023/09/26 11:26:22;;;;;;;;;;;;;;;13.35;76.78;101388.56;4970543;28;2254;-77
2023/09/26 11:29:13;;;;;;;;;;;;;;;13.35;77.02;101385.00;4966047;28;5103;-78
2023/09/26 11:32:06;;;;;;;;;;;;;;;13.36;76.90;101389.38;4969855;28;2204;-78
2023/09/26 11:34:58;;;;;;;;;;;;;;;13.36;76.96;101381.25;4969998;28;2192;-78
2023/09/26 11:37:50;;;;;;;;;;;;;;;13.36;76.89;101383.97;4969200;28;2423;-78
2023/09/26 11:40:41;;;;;;;;;;;;;;;13.37;76.92;101377.50;4971209;28;2128;-76
2023/09/26 11:43:34;;;;;;;;;;;;;;;13.37;76.79;101381.03;4969454;28;3567;-73
2023/09/26 11:46:25;;;;;;;;;;;;;;;13.39;76.83;101375.41;4966840;28;4653;-77
2023/09/26 11:49:18;;;;;;;;;;;;;;;13.38;77.02;101366.47;4971065;28;2080;-76
2023/09/26 11:52:09;;;;;;;;;;;;;;;13.40;77.10;101377.06;4965233;28;2081;-77
2023/09/26 11:55:02;;;;;;;;;;;;;;;13.40;76.90;101382.47;4967695;28;2220;-76
2023/09/26 11:57:54;;;;;;;;;;;;;;;13.40;76.96;101375.19;4967958;28;2081;-76
2023/09/26 12:00:46;;;;;;;;;;;;;;;13.42;77.29;101371.44;4974653;28;2176;-78
2023/09/26 12:03:38;;;;;;;;;;;;;;;13.42;77.23;101366.03;4967749;28;2191;-78
2023/09/26 12:06:30;;;;;;;;;;;;;;;13.43;77.01;101367.69;4964282;28;2175;-77
2023/09/26 12:09:21;;;;;;;;;;;;;;;13.44;77.35;101375.56;4973451;28;2202;-78
2023/09/26 12:12:14;;;;;;;;;;;;;;;13.44;76.97;101369.31;4969816;28;4681;-78
2023/09/26 12:15:07;;;;;;;;;;;;;;;13.44;77.27;101372.84;4971214;28;2250;-78
2023/09/26 12:17:59;;;;;;;;;;;;;;;13.45;77.04;101366.41;4969242;28;2056;-76
2023/09/26 12:20:55;;;;;;;;;;;;;;;13.46;77.36;101356.41;4972781;28;2088;-76
2023/09/26 12:23:46;;;;;;;;;;;;;;;13.46;77.46;101359.94;4974987;28;2234;-77
2023/09/26 12:26:38;;;;;;;;;;;;;;;13.48;77.41;101368.69;4974866;28;1989;-77
2023/09/26 12:29:30;;;;;;;;;;;;;;;13.49;77.25;101350.56;4975309;28;1030;-77
2023/09/26 12:32:21;;;;;;;;;;;;;;;13.49;77.39;101354.09;4973216;28;2227;-78
2023/09/26 12:35:13;;;;;;;;;;;;;;;13.49;77.22;101354.09;4966890;28;1690;-76
2023/09/26 12:38:05;;;;;;;;;;;;;;;13.49;77.17;101351.38;4971232;28;1910;-76
2023/09/26 12:40:56;;;;;;;;;;;;;;;13.51;77.27;101360.13;4972995;28;1699;-75
2023/09/26 12:43:47;;;;;;;;;;;;;;;13.51;77.29;101352.00;4974038;28;2208;-78
2023/09/26 12:46:40;;;;;;;;;;;;;;;13.52;77.48;101358.25;4970979;28;2069;-77
2023/09/26 12:49:32;;;;;;;;;;;;;;;13.56;77.58;101359.44;4971937;28;2229;-76
2023/09/26 12:52:28;;;;;;;;;;;;;;;13.54;77.34;101350.75;4971629;28;2173;-77
2023/09/26 12:55:20;;;;;;;;;;;;;;;13.55;77.36;101358.63;4961535;28;1097;-76
2023/09/26 12:58:12;;;;;;;;;;;;;;;13.55;77.37;101355.09;4968527;28;2148;-78
2023/09/26 13:01:03;;;;;;;;;;;;;;;13.56;77.44;101351.31;4974639;28;2038;-78
2023/09/26 13:03:55;;;;;;;;;;;;;;;13.57;77.54;101347.59;4970753;28;2104;-76
2023/09/26 13:06:47;;;;;;;;;;;;;;;13.57;77.49;101348.41;4973455;28;1756;-77
2023/09/26 13:09:38;;;;;;;;;;;;;;;13.58;77.67;101346.53;4967834;28;2006;-77
2023/09/26 13:12:30;;;;;;;;;;;;;;;13.59;77.51;101343.63;4969980;28;3446;-77
2023/09/26 13:15:22;;;;;;;;;;;;;;;13.60;77.76;101333.63;4973054;28;2166;-77
2023/09/26 13:18:14;;;;;;;;;;;;;;;13.60;77.76;101337.16;4969644;28;1971;-77
2023/09/26 13:21:06;;;;;;;;;;;;;;;13.60;77.57;101325.50;4971770;28;3131;-78
2023/09/26 13:23:59;;;;;;;;;;;;;;;13.61;77.54;101324.44;4972228;28;2100;-77
2023/09/26 13:26:51;;;;;;;;;;;;;;;13.62;77.67;101332.34;4968012;28;1154;-78
2023/09/26 13:29:42;;;;;;;;;;;;;;;13.62;77.75;101337.75;4970535;28;2025;-79
2023/09/26 13:32:34;;;;;;;;;;;;;;;13.64;77.76;101327.53;4972454;28;1477;-79
2023/09/26 13:35:28;;;;;;;;;;;;;;;13.63;77.80;101325.88;4972608;28;1572;-76
2023/09/26 13:38:19;;;;;;;;;;;;;;;13.64;77.76;101324.81;4965232;28;2136;-77
2023/09/26 13:41:11;;;;;;;;;;;;;;;13.66;77.53;101321.09;4965309;28;2010;-76
2023/09/26 13:44:04;;;;;;;;;;;;;;;13.65;77.87;101322.97;4972729;28;2092;-79
2023/09/26 13:46:56;;;;;;;;;;;;;;;13.66;77.66;101330.03;4972300;28;2200;-77
2023/09/26 13:49:47;;;;;;;;;;;;;;;13.68;77.91;101321.66;4968851;28;2112;-79
2023/09/26 13:52:40;;;;;;;;;;;;;;;13.69;77.67;101335.00;4970083;28;2187;-78
2023/09/26 13:55:32;;;;;;;;;;;;;;;13.69;77.69;101326.06;4970310;28;2120;-78
2023/09/26 13:58:23;;;;;;;;;;;;;;;13.69;77.90;101324.16;4968898;28;2208;-77
2023/09/26 14:01:15;;;;;;;;;;;;;;;13.71;78.00;101329.38;4971735;28;2039;-77
2023/09/26 14:04:07;;;;;;;;;;;;;;;13.72;77.73;101320.19;4970889;28;2013;-78
2023/09/26 14:07:00;;;;;;;;;;;;;;;13.71;77.85;101321.25;4971175;28;1222;-77
2023/09/26 14:09:52;;;;;;;;;;;;;;;13.72;77.87;101323.72;4966807;28;3361;-79
2023/09/26 14:12:45;;;;;;;;;;;;;;;13.74;77.96;101323.53;4963153;28;3555;-78
2023/09/26 14:15:37;;;;;;;;;;;;;;;13.74;77.94;101324.34;4971339;28;3532;-78
2023/09/26 14:18:29;;;;;;;;;;;;;;;13.76;78.00;101324.09;4965965;28;2210;-77
2023/09/26 14:21:23;;;;;;;;;;;;;;;13.76;77.87;101313.28;4964185;28;945;-78
2023/09/26 14:24:15;;;;;;;;;;;;;;;13.75;77.87;101312.44;4969219;28;1544;-78
2023/09/26 14:27:07;;;;;;;;;;;;;;;13.76;78.06;101319.50;4975346;28;2147;-76
2023/09/26 14:30:02;;;;;;;;;;;;;;;13.77;78.07;101317.66;4973180;28;996;-78
2023/09/26 14:32:53;;;;;;;;;;;;;;;13.78;78.04;101316.59;4969001;28;988;-78
2023/09/26 14:35:44;;;;;;;;;;;;;;;13.77;78.12;101315.78;4962475;28;1968;-78
2023/09/26 14:38:37;;;;;;;;;;;;;;;13.79;78.03;101316.34;4968831;28;2168;-78
2023/09/26 14:41:29;;;;;;;;;;;;;;;13.80;78.15;101309.09;4970567;28;1537;-78
2023/09/26 14:44:21;;;;;;;;;;;;;;;13.80;78.09;101315.31;4962126;28;1090;-78
2023/09/26 14:47:13;;;;;;;;;;;;;;;13.81;78.02;101308.03;4969100;28;2243;-78
2023/09/26 14:50:05;;;;;;;;;;;;;;;13.82;77.94;101309.69;4973580;28;1968;-76
2023/09/26 14:52:57;;;;;;;;;;;;;;;13.82;78.18;101312.38;4971968;28;1020;-78
2023/09/26 14:55:49;;;;;;;;;;;;;;;13.83;78.05;101305.94;4968449;28;2125;-78
2023/09/26 14:58:41;;;;;;;;;;;;;;;13.83;78.24;101311.34;4971590;28;1903;-78